sensor_id;sensor_type;location;lat;lon;timestamp;P1;durP1;ratioP1;P2;durP2;ratioP2
3417;SDS011;1722;51.316;12.370;2022-10-22T00:02:24;7.47;;;4.03;;
3417;SDS011;1722;51.316;12.370;2022-10-22T00:04:52;7.17;;;4.50;;
3417;SDS011;1722;51.316;12.370;2022-10-22T00:07:22;5.27;;;4.10;;
3417;SDS011;1722;51.316;12.370;2022-10-22T00:09:50;5.27;;;3.97;;
3417;SDS011;1722;51.316;12.370;2022-10-22T00:12:17;4.73;;;4.13;;
3417;SDS011;1722;51.316;12.370;2022-10-22T00:14:45;17.83;;;4.50;;
3417;SDS011;1722;51.316;12.370;2022-10-22T00:17:13;8.27;;;4.77;;
3417;SDS011;1722;51.316;12.370;2022-10-22T00:19:40;6.83;;;4.47;;
3417;SDS011;1722;51.316;12.370;2022-10-22T00:22:08;5.47;;;4.30;;
3417;SDS011;1722;51.316;12.370;2022-10-22T00:24:37;7.63;;;5.23;;
3417;SDS011;1722;51.316;12.370;2022-10-22T00:27:06;6.47;;;4.20;;
3417;SDS011;1722;51.316;12.370;2022-10-22T00:29:34;14.47;;;4.70;;
3417;SDS011;1722;51.316;12.370;2022-10-22T00:32:02;9.13;;;4.83;;
3417;SDS011;1722;51.316;12.370;2022-10-22T00:34:30;8.00;;;4.57;;
3417;SDS011;1722;51.316;12.370;2022-10-22T00:36:58;6.70;;;4.63;;
3417;SDS011;1722;51.316;12.370;2022-10-22T00:39:25;7.70;;;4.80;;
3417;SDS011;1722;51.316;12.370;2022-10-22T00:41:55;6.23;;;4.73;;
3417;SDS011;1722;51.316;12.370;2022-10-22T00:47:41;13.70;;;4.97;;
3417;SDS011;1722;51.316;12.370;2022-10-22T00:50:13;6.13;;;4.90;;
3417;SDS011;1722;51.316;12.370;2022-10-22T00:52:43;9.60;;;4.90;;
3417;SDS011;1722;51.316;12.370;2022-10-22T00:55:11;8.53;;;5.33;;
3417;SDS011;1722;51.316;12.370;2022-10-22T00:57:41;19.73;;;5.33;;
3417;SDS011;1722;51.316;12.370;2022-10-22T01:00:10;8.73;;;4.57;;
3417;SDS011;1722;51.316;12.370;2022-10-22T01:02:38;8.40;;;4.37;;
3417;SDS011;1722;51.316;12.370;2022-10-22T01:05:06;8.33;;;4.50;;
3417;SDS011;1722;51.316;12.370;2022-10-22T01:07:34;5.63;;;4.20;;
3417;SDS011;1722;51.316;12.370;2022-10-22T01:10:08;4.97;;;3.87;;
3417;SDS011;1722;51.316;12.370;2022-10-22T01:12:45;10.73;;;4.67;;
3417;SDS011;1722;51.316;12.370;2022-10-22T01:15:21;6.20;;;4.40;;
3417;SDS011;1722;51.316;12.370;2022-10-22T01:17:55;5.30;;;4.47;;
3417;SDS011;1722;51.316;12.370;2022-10-22T01:20:44;4.83;;;4.07;;
3417;SDS011;1722;51.316;12.370;2022-10-22T01:23:27;6.33;;;4.67;;
3417;SDS011;1722;51.316;12.370;2022-10-22T01:26:16;13.20;;;4.90;;
3417;SDS011;1722;51.316;12.370;2022-10-22T01:28:57;6.77;;;4.60;;
3417;SDS011;1722;51.316;12.370;2022-10-22T01:31:30;6.60;;;4.97;;
3417;SDS011;1722;51.316;12.370;2022-10-22T01:34:00;7.20;;;4.40;;
3417;SDS011;1722;51.316;12.370;2022-10-22T01:36:30;5.20;;;4.70;;
3417;SDS011;1722;51.316;12.370;2022-10-22T01:38:59;10.90;;;5.00;;
3417;SDS011;1722;51.316;12.370;2022-10-22T01:41:28;5.23;;;4.73;;
3417;SDS011;1722;51.316;12.370;2022-10-22T01:43:57;8.83;;;4.87;;
3417;SDS011;1722;51.316;12.370;2022-10-22T01:46:27;9.90;;;4.80;;
3417;SDS011;1722;51.316;12.370;2022-10-22T01:48:59;8.00;;;5.13;;
3417;SDS011;1722;51.316;12.370;2022-10-22T01:51:40;7.97;;;4.77;;
3417;SDS011;1722;51.316;12.370;2022-10-22T01:54:17;6.77;;;4.20;;
3417;SDS011;1722;51.316;12.370;2022-10-22T01:56:55;6.73;;;4.53;;
3417;SDS011;1722;51.316;12.370;2022-10-22T01:59:34;12.87;;;5.30;;
3417;SDS011;1722;51.316;12.370;2022-10-22T02:02:10;11.60;;;5.30;;
3417;SDS011;1722;51.316;12.370;2022-10-22T02:04:45;8.73;;;4.90;;
3417;SDS011;1722;51.316;12.370;2022-10-22T02:07:17;7.63;;;4.60;;
3417;SDS011;1722;51.316;12.370;2022-10-22T02:09:46;9.77;;;4.90;;
3417;SDS011;1722;51.316;12.370;2022-10-22T02:12:15;10.33;;;4.90;;
3417;SDS011;1722;51.316;12.370;2022-10-22T02:14:47;11.03;;;5.33;;
3417;SDS011;1722;51.316;12.370;2022-10-22T02:17:17;7.57;;;5.50;;
3417;SDS011;1722;51.316;12.370;2022-10-22T02:19:47;7.50;;;4.43;;
3417;SDS011;1722;51.316;12.370;2022-10-22T02:22:19;8.53;;;5.10;;
3417;SDS011;1722;51.316;12.370;2022-10-22T02:24:46;8.20;;;4.40;;
3417;SDS011;1722;51.316;12.370;2022-10-22T02:27:16;6.30;;;4.73;;
3417;SDS011;1722;51.316;12.370;2022-10-22T02:29:51;12.33;;;4.30;;
3417;SDS011;1722;51.316;12.370;2022-10-22T02:32:25;4.63;;;3.77;;
3417;SDS011;1722;51.316;12.370;2022-10-22T02:34:56;8.53;;;4.57;;
3417;SDS011;1722;51.316;12.370;2022-10-22T02:37:25;9.27;;;5.27;;
3417;SDS011;1722;51.316;12.370;2022-10-22T02:39:53;13.67;;;5.43;;
3417;SDS011;1722;51.316;12.370;2022-10-22T02:42:22;10.87;;;5.47;;
3417;SDS011;1722;51.316;12.370;2022-10-22T02:44:52;10.00;;;5.00;;
3417;SDS011;1722;51.316;12.370;2022-10-22T02:47:19;10.33;;;5.33;;
3417;SDS011;1722;51.316;12.370;2022-10-22T02:49:47;10.43;;;4.47;;
3417;SDS011;1722;51.316;12.370;2022-10-22T02:52:14;6.90;;;4.20;;
3417;SDS011;1722;51.316;12.370;2022-10-22T02:54:42;16.03;;;5.10;;
3417;SDS011;1722;51.316;12.370;2022-10-22T02:57:09;4.93;;;4.43;;
3417;SDS011;1722;51.316;12.370;2022-10-22T02:59:36;6.77;;;4.57;;
3417;SDS011;1722;51.316;12.370;2022-10-22T03:02:05;10.03;;;4.73;;
3417;SDS011;1722;51.316;12.370;2022-10-22T03:04:33;9.47;;;5.03;;
3417;SDS011;1722;51.316;12.370;2022-10-22T03:07:00;9.77;;;5.37;;
3417;SDS011;1722;51.316;12.370;2022-10-22T03:09:28;16.60;;;5.00;;
3417;SDS011;1722;51.316;12.370;2022-10-22T03:11:55;9.43;;;5.50;;
3417;SDS011;1722;51.316;12.370;2022-10-22T03:14:23;8.50;;;5.00;;
3417;SDS011;1722;51.316;12.370;2022-10-22T03:16:50;7.03;;;4.90;;
3417;SDS011;1722;51.316;12.370;2022-10-22T03:19:19;8.33;;;4.80;;
3417;SDS011;1722;51.316;12.370;2022-10-22T03:21:47;12.50;;;4.77;;
3417;SDS011;1722;51.316;12.370;2022-10-22T03:24:16;14.23;;;5.23;;
3417;SDS011;1722;51.316;12.370;2022-10-22T03:26:48;7.43;;;5.10;;
3417;SDS011;1722;51.316;12.370;2022-10-22T03:29:17;6.60;;;5.60;;
3417;SDS011;1722;51.316;12.370;2022-10-22T03:31:47;6.47;;;4.73;;
3417;SDS011;1722;51.316;12.370;2022-10-22T03:34:15;13.23;;;5.70;;
3417;SDS011;1722;51.316;12.370;2022-10-22T03:36:43;5.57;;;4.93;;
3417;SDS011;1722;51.316;12.370;2022-10-22T03:39:12;8.23;;;4.67;;
3417;SDS011;1722;51.316;12.370;2022-10-22T03:41:42;8.00;;;4.90;;
3417;SDS011;1722;51.316;12.370;2022-10-22T03:44:10;6.80;;;5.20;;
3417;SDS011;1722;51.316;12.370;2022-10-22T03:46:38;11.70;;;4.80;;
3417;SDS011;1722;51.316;12.370;2022-10-22T03:49:05;6.77;;;5.00;;
3417;SDS011;1722;51.316;12.370;2022-10-22T03:51:33;11.43;;;4.87;;
3417;SDS011;1722;51.316;12.370;2022-10-22T03:54:02;12.77;;;5.00;;
3417;SDS011;1722;51.316;12.370;2022-10-22T03:56:30;11.23;;;5.23;;
3417;SDS011;1722;51.316;12.370;2022-10-22T03:58:58;7.80;;;4.93;;
3417;SDS011;1722;51.316;12.370;2022-10-22T04:01:27;6.87;;;4.60;;
3417;SDS011;1722;51.316;12.370;2022-10-22T04:03:55;5.30;;;4.80;;
3417;SDS011;1722;51.316;12.370;2022-10-22T04:06:23;7.97;;;4.80;;
3417;SDS011;1722;51.316;12.370;2022-10-22T04:08:51;8.37;;;5.40;;
3417;SDS011;1722;51.316;12.370;2022-10-22T04:11:20;6.60;;;5.13;;
3417;SDS011;1722;51.316;12.370;2022-10-22T04:13:47;11.37;;;5.50;;
3417;SDS011;1722;51.316;12.370;2022-10-22T04:16:15;5.80;;;4.70;;
3417;SDS011;1722;51.316;12.370;2022-10-22T04:18:45;5.37;;;4.87;;
3417;SDS011;1722;51.316;12.370;2022-10-22T04:21:17;7.23;;;4.10;;
3417;SDS011;1722;51.316;12.370;2022-10-22T04:23:45;6.60;;;4.90;;
3417;SDS011;1722;51.316;12.370;2022-10-22T04:26:14;19.53;;;5.87;;
3417;SDS011;1722;51.316;12.370;2022-10-22T04:28:44;8.03;;;4.80;;
3417;SDS011;1722;51.316;12.370;2022-10-22T04:31:12;12.53;;;6.03;;
3417;SDS011;1722;51.316;12.370;2022-10-22T04:33:41;9.20;;;4.80;;
3417;SDS011;1722;51.316;12.370;2022-10-22T04:36:09;6.67;;;4.40;;
3417;SDS011;1722;51.316;12.370;2022-10-22T04:38:38;7.13;;;5.03;;
3417;SDS011;1722;51.316;12.370;2022-10-22T04:41:10;7.20;;;5.30;;
3417;SDS011;1722;51.316;12.370;2022-10-22T04:43:39;8.37;;;5.03;;
3417;SDS011;1722;51.316;12.370;2022-10-22T04:46:08;7.60;;;5.00;;
3417;SDS011;1722;51.316;12.370;2022-10-22T04:48:35;5.63;;;4.80;;
3417;SDS011;1722;51.316;12.370;2022-10-22T04:51:04;8.30;;;5.23;;
3417;SDS011;1722;51.316;12.370;2022-10-22T04:53:32;11.03;;;5.70;;
3417;SDS011;1722;51.316;12.370;2022-10-22T04:56:07;13.50;;;4.83;;
3417;SDS011;1722;51.316;12.370;2022-10-22T04:58:35;8.87;;;4.97;;
3417;SDS011;1722;51.316;12.370;2022-10-22T05:01:15;9.50;;;5.80;;
3417;SDS011;1722;51.316;12.370;2022-10-22T05:03:44;9.27;;;5.40;;
3417;SDS011;1722;51.316;12.370;2022-10-22T05:06:13;7.17;;;5.43;;
3417;SDS011;1722;51.316;12.370;2022-10-22T05:08:40;12.70;;;5.80;;
3417;SDS011;1722;51.316;12.370;2022-10-22T05:11:11;9.73;;;6.23;;
3417;SDS011;1722;51.316;12.370;2022-10-22T05:13:40;8.57;;;5.30;;
3417;SDS011;1722;51.316;12.370;2022-10-22T05:16:08;11.30;;;5.53;;
3417;SDS011;1722;51.316;12.370;2022-10-22T05:18:37;9.63;;;5.47;;
3417;SDS011;1722;51.316;12.370;2022-10-22T05:21:07;10.23;;;5.30;;
3417;SDS011;1722;51.316;12.370;2022-10-22T05:23:36;7.83;;;5.30;;
3417;SDS011;1722;51.316;12.370;2022-10-22T05:26:03;10.80;;;6.20;;
3417;SDS011;1722;51.316;12.370;2022-10-22T05:28:32;8.23;;;5.10;;
3417;SDS011;1722;51.316;12.370;2022-10-22T05:31:01;8.67;;;5.57;;
3417;SDS011;1722;51.316;12.370;2022-10-22T05:33:30;8.00;;;5.40;;
3417;SDS011;1722;51.316;12.370;2022-10-22T05:36:00;9.20;;;5.13;;
3417;SDS011;1722;51.316;12.370;2022-10-22T05:38:30;16.63;;;6.17;;
3417;SDS011;1722;51.316;12.370;2022-10-22T05:40:58;8.87;;;5.60;;
3417;SDS011;1722;51.316;12.370;2022-10-22T05:43:26;9.23;;;5.87;;
3417;SDS011;1722;51.316;12.370;2022-10-22T05:45:53;5.93;;;5.33;;
3417;SDS011;1722;51.316;12.370;2022-10-22T05:48:21;12.57;;;5.43;;
3417;SDS011;1722;51.316;12.370;2022-10-22T05:50:49;7.10;;;5.20;;
3417;SDS011;1722;51.316;12.370;2022-10-22T05:53:18;6.10;;;5.23;;
3417;SDS011;1722;51.316;12.370;2022-10-22T05:55:45;11.00;;;6.00;;
3417;SDS011;1722;51.316;12.370;2022-10-22T05:58:13;9.10;;;6.40;;
3417;SDS011;1722;51.316;12.370;2022-10-22T06:00:40;9.00;;;4.90;;
3417;SDS011;1722;51.316;12.370;2022-10-22T06:03:08;9.83;;;4.97;;
3417;SDS011;1722;51.316;12.370;2022-10-22T06:05:35;9.17;;;5.30;;
3417;SDS011;1722;51.316;12.370;2022-10-22T06:08:04;10.13;;;5.10;;
3417;SDS011;1722;51.316;12.370;2022-10-22T06:10:33;7.00;;;4.90;;
3417;SDS011;1722;51.316;12.370;2022-10-22T06:13:00;10.30;;;6.00;;
3417;SDS011;1722;51.316;12.370;2022-10-22T06:15:32;13.80;;;5.30;;
3417;SDS011;1722;51.316;12.370;2022-10-22T06:17:59;15.60;;;4.80;;
3417;SDS011;1722;51.316;12.370;2022-10-22T06:20:26;9.53;;;5.03;;
3417;SDS011;1722;51.316;12.370;2022-10-22T06:22:54;6.53;;;5.27;;
3417;SDS011;1722;51.316;12.370;2022-10-22T06:25:21;9.10;;;4.87;;
3417;SDS011;1722;51.316;12.370;2022-10-22T06:27:50;7.80;;;4.70;;
3417;SDS011;1722;51.316;12.370;2022-10-22T06:30:18;5.17;;;4.63;;
3417;SDS011;1722;51.316;12.370;2022-10-22T06:32:45;9.93;;;5.07;;
3417;SDS011;1722;51.316;12.370;2022-10-22T06:35:12;8.47;;;5.20;;
3417;SDS011;1722;51.316;12.370;2022-10-22T06:37:40;8.40;;;5.17;;
3417;SDS011;1722;51.316;12.370;2022-10-22T06:40:08;9.03;;;6.00;;
3417;SDS011;1722;51.316;12.370;2022-10-22T06:42:36;8.00;;;5.23;;
3417;SDS011;1722;51.316;12.370;2022-10-22T06:45:06;6.50;;;4.80;;
3417;SDS011;1722;51.316;12.370;2022-10-22T06:47:34;10.37;;;5.10;;
3417;SDS011;1722;51.316;12.370;2022-10-22T06:50:02;6.13;;;5.10;;
3417;SDS011;1722;51.316;12.370;2022-10-22T06:52:30;8.20;;;5.20;;
3417;SDS011;1722;51.316;12.370;2022-10-22T06:54:57;9.67;;;5.53;;
3417;SDS011;1722;51.316;12.370;2022-10-22T06:57:24;10.20;;;5.63;;
3417;SDS011;1722;51.316;12.370;2022-10-22T06:59:52;8.50;;;5.40;;
3417;SDS011;1722;51.316;12.370;2022-10-22T07:02:21;7.90;;;5.90;;
3417;SDS011;1722;51.316;12.370;2022-10-22T07:04:48;7.40;;;4.90;;
3417;SDS011;1722;51.316;12.370;2022-10-22T07:07:15;5.83;;;5.07;;
3417;SDS011;1722;51.316;12.370;2022-10-22T07:09:43;6.17;;;5.10;;
3417;SDS011;1722;51.316;12.370;2022-10-22T07:12:12;12.90;;;5.13;;
3417;SDS011;1722;51.316;12.370;2022-10-22T07:14:39;8.00;;;5.40;;
3417;SDS011;1722;51.316;12.370;2022-10-22T07:17:07;11.30;;;6.30;;
3417;SDS011;1722;51.316;12.370;2022-10-22T07:19:36;9.03;;;5.33;;
3417;SDS011;1722;51.316;12.370;2022-10-22T07:22:03;7.37;;;4.90;;
3417;SDS011;1722;51.316;12.370;2022-10-22T07:24:30;10.33;;;4.93;;
3417;SDS011;1722;51.316;12.370;2022-10-22T07:26:58;15.10;;;6.40;;
3417;SDS011;1722;51.316;12.370;2022-10-22T07:29:25;8.70;;;5.20;;
3417;SDS011;1722;51.316;12.370;2022-10-22T07:31:53;7.57;;;5.87;;
3417;SDS011;1722;51.316;12.370;2022-10-22T07:34:20;7.70;;;5.07;;
3417;SDS011;1722;51.316;12.370;2022-10-22T07:36:49;8.10;;;5.43;;
3417;SDS011;1722;51.316;12.370;2022-10-22T07:39:16;6.73;;;5.60;;
3417;SDS011;1722;51.316;12.370;2022-10-22T07:41:44;8.03;;;5.53;;
3417;SDS011;1722;51.316;12.370;2022-10-22T07:44:11;6.77;;;5.20;;
3417;SDS011;1722;51.316;12.370;2022-10-22T07:46:39;9.83;;;5.07;;
3417;SDS011;1722;51.316;12.370;2022-10-22T07:49:06;7.50;;;5.10;;
3417;SDS011;1722;51.316;12.370;2022-10-22T07:51:33;6.60;;;4.70;;
3417;SDS011;1722;51.316;12.370;2022-10-22T07:54:02;5.00;;;4.50;;
3417;SDS011;1722;51.316;12.370;2022-10-22T07:56:30;5.03;;;3.97;;
3417;SDS011;1722;51.316;12.370;2022-10-22T07:58:57;8.73;;;4.93;;
3417;SDS011;1722;51.316;12.370;2022-10-22T08:01:25;6.63;;;3.83;;
3417;SDS011;1722;51.316;12.370;2022-10-22T08:03:52;6.20;;;3.83;;
3417;SDS011;1722;51.316;12.370;2022-10-22T08:06:20;4.07;;;3.70;;
3417;SDS011;1722;51.316;12.370;2022-10-22T08:08:47;6.67;;;3.30;;
3417;SDS011;1722;51.316;12.370;2022-10-22T08:11:16;3.80;;;3.00;;
3417;SDS011;1722;51.316;12.370;2022-10-22T08:13:43;4.33;;;3.17;;
3417;SDS011;1722;51.316;12.370;2022-10-22T08:16:11;4.70;;;2.50;;
3417;SDS011;1722;51.316;12.370;2022-10-22T08:18:39;3.50;;;2.77;;
3417;SDS011;1722;51.316;12.370;2022-10-22T08:21:06;3.00;;;2.53;;
3417;SDS011;1722;51.316;12.370;2022-10-22T08:23:33;2.13;;;2.00;;
3417;SDS011;1722;51.316;12.370;2022-10-22T08:26:01;4.70;;;2.10;;
3417;SDS011;1722;51.316;12.370;2022-10-22T08:28:30;4.43;;;1.80;;
3417;SDS011;1722;51.316;12.370;2022-10-22T08:31:01;5.90;;;1.73;;
3417;SDS011;1722;51.316;12.370;2022-10-22T08:33:29;3.13;;;1.60;;
3417;SDS011;1722;51.316;12.370;2022-10-22T08:35:56;2.20;;;1.70;;
3417;SDS011;1722;51.316;12.370;2022-10-22T08:38:24;5.00;;;1.70;;
3417;SDS011;1722;51.316;12.370;2022-10-22T08:40:53;2.53;;;2.00;;
3417;SDS011;1722;51.316;12.370;2022-10-22T08:46:31;3.70;;;1.80;;
3417;SDS011;1722;51.316;12.370;2022-10-22T08:49:08;2.13;;;1.17;;
3417;SDS011;1722;51.316;12.370;2022-10-22T08:51:42;3.13;;;1.60;;
3417;SDS011;1722;51.316;12.370;2022-10-22T08:54:13;5.40;;;1.53;;
3417;SDS011;1722;51.316;12.370;2022-10-22T08:56:49;3.00;;;1.90;;
3417;SDS011;1722;51.316;12.370;2022-10-22T08:59:40;2.97;;;1.70;;
3417;SDS011;1722;51.316;12.370;2022-10-22T09:02:17;2.47;;;1.43;;
3417;SDS011;1722;51.316;12.370;2022-10-22T09:04:53;2.40;;;1.43;;
3417;SDS011;1722;51.316;12.370;2022-10-22T09:07:25;2.57;;;1.60;;
3417;SDS011;1722;51.316;12.370;2022-10-22T09:09:52;4.30;;;2.03;;
3417;SDS011;1722;51.316;12.370;2022-10-22T09:12:21;3.00;;;1.93;;
3417;SDS011;1722;51.316;12.370;2022-10-22T09:14:52;1.87;;;1.40;;
3417;SDS011;1722;51.316;12.370;2022-10-22T09:17:23;1.70;;;1.60;;
3417;SDS011;1722;51.316;12.370;2022-10-22T09:20:00;2.90;;;1.70;;
3417;SDS011;1722;51.316;12.370;2022-10-22T09:22:33;2.60;;;1.47;;
3417;SDS011;1722;51.316;12.370;2022-10-22T09:25:18;2.00;;;1.40;;
3417;SDS011;1722;51.316;12.370;2022-10-22T09:27:47;3.00;;;2.53;;
3417;SDS011;1722;51.316;12.370;2022-10-22T09:30:18;2.70;;;1.80;;
3417;SDS011;1722;51.316;12.370;2022-10-22T09:32:48;3.23;;;1.80;;
3417;SDS011;1722;51.316;12.370;2022-10-22T09:35:20;1.93;;;1.40;;
3417;SDS011;1722;51.316;12.370;2022-10-22T09:37:49;1.60;;;1.50;;
3417;SDS011;1722;51.316;12.370;2022-10-22T09:40:18;2.33;;;1.40;;
3417;SDS011;1722;51.316;12.370;2022-10-22T09:42:46;3.00;;;1.40;;
3417;SDS011;1722;51.316;12.370;2022-10-22T09:45:15;1.30;;;1.20;;
3417;SDS011;1722;51.316;12.370;2022-10-22T09:47:45;3.53;;;3.00;;
3417;SDS011;1722;51.316;12.370;2022-10-22T09:50:18;8.93;;;3.47;;
3417;SDS011;1722;51.316;12.370;2022-10-22T09:52:58;2.13;;;1.77;;
3417;SDS011;1722;51.316;12.370;2022-10-22T09:55:27;2.03;;;1.70;;
3417;SDS011;1722;51.316;12.370;2022-10-22T09:57:55;5.27;;;1.37;;
3417;SDS011;1722;51.316;12.370;2022-10-22T10:00:26;2.33;;;1.60;;
3417;SDS011;1722;51.316;12.370;2022-10-22T10:02:55;2.83;;;1.50;;
3417;SDS011;1722;51.316;12.370;2022-10-22T10:05:24;2.50;;;1.03;;
3417;SDS011;1722;51.316;12.370;2022-10-22T10:07:56;5.10;;;1.30;;
3417;SDS011;1722;51.316;12.370;2022-10-22T10:10:26;1.83;;;1.40;;
3417;SDS011;1722;51.316;12.370;2022-10-22T10:13:02;1.57;;;1.00;;
3417;SDS011;1722;51.316;12.370;2022-10-22T10:15:42;1.20;;;1.10;;
3417;SDS011;1722;51.316;12.370;2022-10-22T10:18:22;1.33;;;1.23;;
3417;SDS011;1722;51.316;12.370;2022-10-22T10:21:01;2.20;;;1.27;;
3417;SDS011;1722;51.316;12.370;2022-10-22T10:23:35;2.07;;;1.30;;
3417;SDS011;1722;51.316;12.370;2022-10-22T10:26:13;4.37;;;1.37;;
3417;SDS011;1722;51.316;12.370;2022-10-22T10:28:49;1.30;;;1.20;;
3417;SDS011;1722;51.316;12.370;2022-10-22T10:31:30;3.93;;;1.37;;
3417;SDS011;1722;51.316;12.370;2022-10-22T10:34:13;1.47;;;1.37;;
3417;SDS011;1722;51.316;12.370;2022-10-22T10:36:49;1.40;;;1.30;;
3417;SDS011;1722;51.316;12.370;2022-10-22T10:39:26;6.00;;;1.10;;
3417;SDS011;1722;51.316;12.370;2022-10-22T10:42:01;1.20;;;1.10;;
3417;SDS011;1722;51.316;12.370;2022-10-22T10:44:36;2.40;;;1.10;;
3417;SDS011;1722;51.316;12.370;2022-10-22T10:47:20;1.10;;;0.90;;
3417;SDS011;1722;51.316;12.370;2022-10-22T10:50:13;1.37;;;1.00;;
3417;SDS011;1722;51.316;12.370;2022-10-22T10:52:48;2.07;;;1.20;;
3417;SDS011;1722;51.316;12.370;2022-10-22T10:55:26;2.83;;;1.10;;
3417;SDS011;1722;51.316;12.370;2022-10-22T10:57:59;4.77;;;1.13;;
3417;SDS011;1722;51.316;12.370;2022-10-22T11:00:39;3.03;;;1.10;;
3417;SDS011;1722;51.316;12.370;2022-10-22T11:03:22;2.77;;;1.27;;
3417;SDS011;1722;51.316;12.370;2022-10-22T11:06:17;2.50;;;1.30;;
3417;SDS011;1722;51.316;12.370;2022-10-22T11:08:49;2.10;;;1.20;;
3417;SDS011;1722;51.316;12.370;2022-10-22T11:11:21;2.23;;;1.00;;
3417;SDS011;1722;51.316;12.370;2022-10-22T11:13:56;2.53;;;0.93;;
3417;SDS011;1722;51.316;12.370;2022-10-22T11:16:29;2.90;;;1.30;;
3417;SDS011;1722;51.316;12.370;2022-10-22T11:19:02;1.10;;;1.00;;
3417;SDS011;1722;51.316;12.370;2022-10-22T11:21:35;2.10;;;1.30;;
3417;SDS011;1722;51.316;12.370;2022-10-22T11:24:08;1.63;;;1.30;;
3417;SDS011;1722;51.316;12.370;2022-10-22T11:26:43;0.83;;;0.83;;
3417;SDS011;1722;51.316;12.370;2022-10-22T11:29:15;2.90;;;1.13;;
3417;SDS011;1722;51.316;12.370;2022-10-22T11:31:47;2.00;;;0.90;;
3417;SDS011;1722;51.316;12.370;2022-10-22T11:34:17;1.90;;;1.07;;
3417;SDS011;1722;51.316;12.370;2022-10-22T11:36:49;2.33;;;1.13;;
3417;SDS011;1722;51.316;12.370;2022-10-22T11:39:35;1.57;;;0.80;;
3417;SDS011;1722;51.316;12.370;2022-10-22T11:42:08;1.27;;;1.00;;
3417;SDS011;1722;51.316;12.370;2022-10-22T11:44:47;1.20;;;1.00;;
3417;SDS011;1722;51.316;12.370;2022-10-22T11:47:25;2.60;;;0.80;;
3417;SDS011;1722;51.316;12.370;2022-10-22T11:49:56;1.40;;;1.10;;
3417;SDS011;1722;51.316;12.370;2022-10-22T11:52:36;1.50;;;1.23;;
3417;SDS011;1722;51.316;12.370;2022-10-22T11:57:59;2.80;;;1.00;;
3417;SDS011;1722;51.316;12.370;2022-10-22T12:00:32;1.73;;;0.90;;
3417;SDS011;1722;51.316;12.370;2022-10-22T12:03:01;2.10;;;0.80;;
3417;SDS011;1722;51.316;12.370;2022-10-22T12:05:34;6.30;;;1.17;;
3417;SDS011;1722;51.316;12.370;2022-10-22T12:13:54;1.33;;;1.10;;
3417;SDS011;1722;51.316;12.370;2022-10-22T12:16:37;1.37;;;1.27;;
3417;SDS011;1722;51.316;12.370;2022-10-22T12:19:11;1.83;;;1.40;;
3417;SDS011;1722;51.316;12.370;2022-10-22T12:21:41;1.30;;;1.07;;
3417;SDS011;1722;51.316;12.370;2022-10-22T12:24:13;7.23;;;1.30;;
3417;SDS011;1722;51.316;12.370;2022-10-22T12:26:42;1.17;;;1.07;;
3417;SDS011;1722;51.316;12.370;2022-10-22T12:29:12;1.97;;;1.17;;
3417;SDS011;1722;51.316;12.370;2022-10-22T12:31:41;1.90;;;1.10;;
3417;SDS011;1722;51.316;12.370;2022-10-22T12:34:14;7.90;;;0.93;;
3417;SDS011;1722;51.316;12.370;2022-10-22T12:36:42;2.63;;;1.00;;
3417;SDS011;1722;51.316;12.370;2022-10-22T12:39:14;1.20;;;1.10;;
3417;SDS011;1722;51.316;12.370;2022-10-22T12:41:43;1.90;;;1.10;;
3417;SDS011;1722;51.316;12.370;2022-10-22T12:44:11;2.50;;;0.97;;
3417;SDS011;1722;51.316;12.370;2022-10-22T12:46:40;1.20;;;0.90;;
3417;SDS011;1722;51.316;12.370;2022-10-22T12:49:10;1.27;;;1.10;;
3417;SDS011;1722;51.316;12.370;2022-10-22T12:51:43;1.20;;;1.10;;
3417;SDS011;1722;51.316;12.370;2022-10-22T12:54:21;2.93;;;1.20;;
3417;SDS011;1722;51.316;12.370;2022-10-22T12:56:51;1.40;;;1.00;;
3417;SDS011;1722;51.316;12.370;2022-10-22T12:59:20;1.80;;;1.00;;
3417;SDS011;1722;51.316;12.370;2022-10-22T13:01:50;1.43;;;1.07;;
3417;SDS011;1722;51.316;12.370;2022-10-22T13:04:20;2.07;;;1.20;;
3417;SDS011;1722;51.316;12.370;2022-10-22T13:07:03;1.60;;;1.10;;
3417;SDS011;1722;51.316;12.370;2022-10-22T13:09:41;2.60;;;1.20;;
3417;SDS011;1722;51.316;12.370;2022-10-22T13:12:10;1.30;;;1.20;;
3417;SDS011;1722;51.316;12.370;2022-10-22T13:14:41;4.73;;;1.20;;
3417;SDS011;1722;51.316;12.370;2022-10-22T13:17:11;1.43;;;1.20;;
3417;SDS011;1722;51.316;12.370;2022-10-22T13:19:42;1.00;;;1.00;;
3417;SDS011;1722;51.316;12.370;2022-10-22T13:22:22;5.50;;;1.10;;
3417;SDS011;1722;51.316;12.370;2022-10-22T13:24:53;3.23;;;1.10;;
3417;SDS011;1722;51.316;12.370;2022-10-22T13:27:23;1.60;;;1.37;;
3417;SDS011;1722;51.316;12.370;2022-10-22T13:29:52;1.47;;;1.20;;
3417;SDS011;1722;51.316;12.370;2022-10-22T13:32:23;1.47;;;1.20;;
3417;SDS011;1722;51.316;12.370;2022-10-22T13:34:54;1.40;;;1.30;;
3417;SDS011;1722;51.316;12.370;2022-10-22T13:37:22;1.80;;;1.40;;
3417;SDS011;1722;51.316;12.370;2022-10-22T13:39:49;2.20;;;1.27;;
3417;SDS011;1722;51.316;12.370;2022-10-22T13:42:18;2.33;;;1.27;;
3417;SDS011;1722;51.316;12.370;2022-10-22T13:44:46;1.20;;;1.10;;
3417;SDS011;1722;51.316;12.370;2022-10-22T13:47:16;2.53;;;1.50;;
3417;SDS011;1722;51.316;12.370;2022-10-22T13:49:52;4.23;;;1.53;;
3417;SDS011;1722;51.316;12.370;2022-10-22T13:52:26;2.37;;;2.03;;
3417;SDS011;1722;51.316;12.370;2022-10-22T13:54:57;4.77;;;1.60;;
3417;SDS011;1722;51.316;12.370;2022-10-22T13:57:26;1.40;;;1.30;;
3417;SDS011;1722;51.316;12.370;2022-10-22T13:59:53;4.77;;;2.13;;
3417;SDS011;1722;51.316;12.370;2022-10-22T14:02:21;8.10;;;1.70;;
3417;SDS011;1722;51.316;12.370;2022-10-22T14:04:49;5.30;;;1.70;;
3417;SDS011;1722;51.316;12.370;2022-10-22T14:07:18;10.37;;;1.37;;
3417;SDS011;1722;51.316;12.370;2022-10-22T14:09:45;3.67;;;1.43;;
3417;SDS011;1722;51.316;12.370;2022-10-22T14:12:13;4.00;;;1.57;;
3417;SDS011;1722;51.316;12.370;2022-10-22T14:14:43;2.60;;;1.40;;
3417;SDS011;1722;51.316;12.370;2022-10-22T14:17:12;4.23;;;1.67;;
3417;SDS011;1722;51.316;12.370;2022-10-22T14:19:42;1.70;;;1.60;;
3417;SDS011;1722;51.316;12.370;2022-10-22T14:22:14;2.37;;;1.33;;
3417;SDS011;1722;51.316;12.370;2022-10-22T14:24:41;3.13;;;1.60;;
3417;SDS011;1722;51.316;12.370;2022-10-22T14:27:10;1.97;;;1.67;;
3417;SDS011;1722;51.316;12.370;2022-10-22T14:29:38;4.83;;;1.57;;
3417;SDS011;1722;51.316;12.370;2022-10-22T14:32:11;4.10;;;1.70;;
3417;SDS011;1722;51.316;12.370;2022-10-22T14:34:39;3.43;;;1.93;;
3417;SDS011;1722;51.316;12.370;2022-10-22T14:37:17;2.20;;;1.30;;
3417;SDS011;1722;51.316;12.370;2022-10-22T14:39:46;3.40;;;2.10;;
3417;SDS011;1722;51.316;12.370;2022-10-22T14:42:17;1.70;;;1.60;;
3417;SDS011;1722;51.316;12.370;2022-10-22T14:44:45;11.73;;;1.97;;
3417;SDS011;1722;51.316;12.370;2022-10-22T14:47:14;2.60;;;2.13;;
3417;SDS011;1722;51.316;12.370;2022-10-22T14:49:41;3.87;;;1.47;;
3417;SDS011;1722;51.316;12.370;2022-10-22T14:52:09;3.23;;;2.00;;
3417;SDS011;1722;51.316;12.370;2022-10-22T14:54:36;4.03;;;2.27;;
3417;SDS011;1722;51.316;12.370;2022-10-22T14:57:04;5.20;;;3.43;;
3417;SDS011;1722;51.316;12.370;2022-10-22T14:59:31;3.97;;;2.50;;
3417;SDS011;1722;51.316;12.370;2022-10-22T15:01:58;4.00;;;2.03;;
3417;SDS011;1722;51.316;12.370;2022-10-22T15:04:27;2.80;;;1.73;;
3417;SDS011;1722;51.316;12.370;2022-10-22T15:06:55;10.13;;;2.47;;
3417;SDS011;1722;51.316;12.370;2022-10-22T15:09:23;4.70;;;2.00;;
3417;SDS011;1722;51.316;12.370;2022-10-22T15:11:51;8.30;;;2.50;;
3417;SDS011;1722;51.316;12.370;2022-10-22T15:14:18;5.50;;;2.20;;
3417;SDS011;1722;51.316;12.370;2022-10-22T15:16:46;5.40;;;2.10;;
3417;SDS011;1722;51.316;12.370;2022-10-22T15:19:13;4.37;;;1.93;;
3417;SDS011;1722;51.316;12.370;2022-10-22T15:21:42;6.13;;;2.00;;
3417;SDS011;1722;51.316;12.370;2022-10-22T15:24:09;5.53;;;2.10;;
3417;SDS011;1722;51.316;12.370;2022-10-22T15:26:37;3.53;;;2.33;;
3417;SDS011;1722;51.316;12.370;2022-10-22T15:29:04;5.03;;;2.20;;
3417;SDS011;1722;51.316;12.370;2022-10-22T15:31:41;7.00;;;2.70;;
3417;SDS011;1722;51.316;12.370;2022-10-22T15:34:11;9.23;;;2.27;;
3417;SDS011;1722;51.316;12.370;2022-10-22T15:36:38;6.97;;;2.57;;